Latest Weather Observations for Melbourne (Olympic Park)

IDV60801

Issued at 4:22 am EST Wednesday 17 July 2019 (issued every 10 minutes, with the page automatically refreshed every 10 minutes)

About weather observations | Map of weather stations | Latest weather observations for VIC | Other Formats
Station Details ID: 086338 Name: MELBOURNE (OLYMPIC PARK) Lat: -37.83 Lon: 144.98 Height: 7.53 m
Data from the previous 72 hours. | See also: Recent months at Melbourne (Olympic Park)
Date/Time
EST
Temp
°C
App
Temp
°C
Dew
Point
°C
Rel
Hum
%
Delta-T
°C
Wind Press
QNH
hPa
Press
MSL
hPa
Rain since
9am
mm
Dir  Spd
km/h
Gust
km/h
Spd
kts
Gust
kts
17/04:00am 9.9 9.3 7.5 85 1.1 CALM 0 6 0 3 1019.4 1019.4 0.0
17/03:30am 10.3 8.3 7.2 81 1.5 WSW 7 13 4 7 1020.0 1020.0 0.0
17/03:00am 10.9 8.8 6.6 75 2.0 SW 7 11 4 6 1020.3 1020.3 0.0
17/02:30am 11.0 8.5 6.6 74 2.1 W 9 15 5 8 1020.7 1020.7 0.0
17/02:00am 11.2 8.6 6.3 72 2.3 W 9 15 5 8 1021.0 1021.0 0.0
17/01:30am 11.3 8.9 7.0 75 2.0 WNW 9 19 5 10 1021.2 1021.2 0.0
17/01:00am 11.6 9.2 7.1 74 2.1 NW 9 20 5 11 1021.1 1021.1 0.0
17/12:30am 11.7 8.6 7.4 75 2.1 NW 13 20 7 11 1021.3 1021.3 0.0
17/12:00am 11.8 9.6 7.7 76 2.0 NW 9 17 5 9 1021.5 1021.5 0.0
 
Date/Time
EST
Temp
°C
App
Temp
°C
Dew
Point
°C
Rel
Hum
%
Delta-T
°C
Wind Press
QNH
hPa
Press
MSL
hPa
Rain since
9am
mm
Dir  Spd
km/h
Gust
km/h
Spd
kts
Gust
kts
16/11:30pm 11.9 9.3 7.8 76 2.0 NW 11 17 6 9 1021.6 1021.6 0.0
16/11:00pm 11.8 9.3 8.1 78 1.8 NW 11 17 6 9 1021.9 1021.9 0.0
16/10:30pm 11.5 9.6 8.9 84 1.3 NW 9 15 5 8 1022.0 1022.0 0.0
16/10:00pm 11.3 9.5 9.4 88 0.9 NW 9 17 5 9 1022.3 1022.3 0.0
16/09:30pm 11.3 9.5 9.4 88 1.0 WNW 9 13 5 7 1022.5 1022.5 0.0
16/09:00pm 11.3 9.6 9.7 90 0.8 W 9 15 5 8 1022.5 1022.5 0.0
16/08:54pm 11.3 9.9 9.7 90 0.8 W 7 15 4 8 1022.5 1022.5 0.0
16/08:36pm 11.6 10.2 9.7 88 1.0 W 7 19 4 10 1022.6 1022.6 0.0
16/08:30pm 11.6 10.2 9.5 87 1.1 W 7 17 4 9 1022.6 1022.6 0.0
16/08:00pm 11.5 10.2 10.1 91 0.7 WNW 7 13 4 7 1022.6 1022.6 0.0
16/07:30pm 11.6 10.0 10.3 92 0.7 WNW 9 20 5 11 1022.6 1022.6 0.0
16/07:12pm 11.8 9.8 10.0 89 0.9 WNW 11 17 6 9 1022.5 1022.5 0.0
16/07:00pm 12.0 10.3 9.9 87 1.1 W 9 15 5 8 1022.5 1022.5 0.0
16/06:30pm 12.7 11.2 9.3 80 1.7 W 7 13 4 7 1022.3 1022.3 0.0
16/06:00pm 13.0 10.7 8.9 76 2.1 W 11 19 6 10 1022.1 1022.1 0.0
16/05:30pm 13.1 11.5 8.8 75 2.2 W 7 11 4 6 1022.0 1022.0 0.0
16/05:00pm 13.3 10.6 9.0 75 2.2 W 13 20 7 11 1021.9 1021.9 0.0
16/04:30pm 13.0 11.3 9.8 81 1.6 W 9 15 5 8 1021.8 1021.8 0.0
16/04:00pm 13.4 10.8 9.3 76 2.1 W 13 26 7 14 1021.8 1021.8 0.0
16/03:30pm 13.8 11.5 9.0 73 2.4 W 11 22 6 12 1021.7 1021.7 0.0
16/03:00pm 13.7 11.5 9.4 75 2.2 W 11 20 6 11 1021.9 1021.9 0.0
16/02:30pm 13.3 11.2 9.9 80 1.7 WNW 11 24 6 13 1021.9 1021.9 0.0
16/02:00pm 13.7 11.4 9.0 73 2.4 WSW 11 24 6 13 1021.8 1021.8 0.0
16/01:30pm 13.2 10.8 8.7 74 2.3 WSW 11 20 6 11 1022.0 1022.0 0.0
16/01:00pm 13.0 10.2 8.5 74 2.2 W 13 26 7 14 1022.2 1022.2 0.0
16/12:30pm 13.0 10.1 8.3 73 2.3 WSW 13 30 7 16 1022.5 1022.5 0.0
16/12:00pm 12.9 10.0 8.2 73 2.3 WSW 13 20 7 11 1023.0 1023.0 0.0
16/11:30am 12.7 10.2 8.2 74 2.2 WSW 11 20 6 11 1023.2 1023.2 0.0
16/11:00am 12.2 9.3 8.3 77 1.9 WSW 13 24 7 13 1023.4 1023.4 0.0
16/10:30am 12.0 9.6 8.7 80 1.6 W 11 24 6 13 1023.5 1023.5 0.0
16/10:00am 12.0 9.3 8.8 81 1.6 WSW 13 24 7 13 1023.5 1023.5 0.0
16/09:30am 11.7 9.0 9.1 84 1.3 W 13 26 7 14 1023.4 1023.4 0.0
16/09:00am 11.4 9.7 9.7 89 0.9 W 9 20 5 11 1023.2 1023.2 1.8
16/08:30am 10.9 8.9 10.0 94 0.5 W 11 17 6 9 1023.0 1023.0 1.8
16/08:00am 11.0 9.8 10.4 96 0.3 W 7 15 4 8 1022.9 1022.9 1.8
16/07:30am 11.0 9.5 10.5 97 0.3 W 9 20 5 11 1022.5 1022.5 1.8
16/07:04am 10.9 9.8 10.6 98 0.2 WNW 7 13 4 7 1022.2 1022.2 1.8
16/07:00am 10.9 9.8 10.6 98 0.2 WNW 7 13 4 7 1022.2 1022.2 1.8
16/06:30am 10.8 9.2 10.2 96 0.3 W 9 17 5 9 1022.3 1022.3 1.6
16/06:00am 10.9 9.8 10.0 94 0.5 W 6 11 3 6 1022.2 1022.2 1.4
16/05:45am 11.0 9.9 9.8 92 0.6 WSW 6 11 3 6 1022.2 1022.2 1.4
16/05:30am 11.0 9.6 9.6 91 0.7 W 7 15 4 8 1022.1 1022.1 1.4
16/05:24am 11.1 10.3 9.5 90 0.8 W 4 9 2 5 1022.0 1022.0 1.4
16/05:04am 11.4 9.6 9.3 87 1.1 W 9 17 5 9 1022.1 1022.1 1.2
16/05:00am 11.5 9.6 9.2 86 1.1 W 9 19 5 10 1022.1 1022.1 1.2
16/04:30am 11.5 10.6 9.4 87 1.1 WNW 4 13 2 7 1022.0 1022.0 1.2
16/04:00am 11.4 9.6 9.3 87 1.0 W 9 15 5 8 1022.3 1022.3 1.2
16/03:30am 11.3 9.8 9.2 87 1.0 W 7 11 4 6 1022.4 1022.4 1.2
16/03:00am 11.4 9.9 9.0 85 1.2 WSW 7 15 4 8 1022.3 1022.3 1.2
16/02:30am 11.5 10.0 9.1 85 1.2 WSW 7 13 4 7 1022.7 1022.7 1.2
16/02:00am 11.6 10.1 9.0 84 1.3 WSW 7 17 4 9 1022.8 1022.8 1.2
16/01:30am 11.8 9.9 9.0 83 1.4 WSW 9 15 5 8 1022.9 1022.9 1.2
16/01:00am 11.7 10.2 9.3 85 1.2 W 7 13 4 7 1022.9 1022.9 1.2
16/12:30am 11.8 10.4 9.5 86 1.2 SW 7 17 4 9 1023.1 1023.1 1.2
16/12:00am 12.0 10.3 9.7 86 1.2 WSW 9 20 5 11 1023.1 1023.1 1.2
 
Date/Time
EST
Temp
°C
App
Temp
°C
Dew
Point
°C
Rel
Hum
%
Delta-T
°C
Wind Press
QNH
hPa
Press
MSL
hPa
Rain since
9am
mm
Dir  Spd
km/h
Gust
km/h
Spd
kts
Gust
kts
15/11:30pm 11.9 10.6 9.8 87 1.1 WSW 7 15 4 8 1023.0 1023.0 1.2
15/11:00pm 12.0 10.4 10.2 89 0.9 W 9 17 5 9 1023.2 1023.2 1.2
15/10:30pm 11.9 10.6 11.1 95 0.4 W 9 15 5 8 1023.0 1023.0 1.2
15/10:00pm 11.9 11.2 11.3 96 0.3 W 6 13 3 7 1023.2 1023.2 1.2
15/09:48pm 11.8 11.1 11.3 97 0.3 W 6 13 3 7 1023.2 1023.2 1.2
15/09:30pm 11.8 10.9 11.3 97 0.3 SW 7 11 4 6 1023.5 1023.5 1.2
15/09:01pm 12.0 10.7 11.2 95 0.4 W 9 13 5 7 1023.4 1023.4 0.6
15/09:00pm 12.0 11.0 11.1 94 0.5 WSW 7 11 4 6 1023.4 1023.4 0.6
15/08:30pm 12.3 10.5 10.7 90 0.8 WSW 11 19 6 10 1023.3 1023.3 0.2
15/08:03pm 12.7 10.7 10.2 85 1.3 W 11 26 6 14 1023.1 1023.1 0.0
15/08:00pm 12.8 11.2 10.3 85 1.3 W 9 26 5 14 1023.1 1023.1 0.0
15/07:30pm 13.3 11.2 9.9 80 1.7 WSW 11 22 6 12 1022.7 1022.7 0.0
15/07:00pm 13.5 11.0 9.7 78 1.9 SW 13 22 7 12 1022.4 1022.4 0.0
15/06:30pm 13.6 11.5 9.6 77 2.0 WSW 11 22 6 12 1022.5 1022.5 0.0
15/06:00pm 13.9 11.7 9.5 75 2.2 W 11 24 6 13 1022.3 1022.3 0.0
15/05:30pm 14.0 11.8 9.4 74 2.4 W 11 22 6 12 1021.9 1021.9 0.0
15/05:00pm 14.0 12.2 9.4 74 2.3 WNW 9 17 5 9 1021.6 1021.6 0.0
15/04:30pm 14.0 12.1 9.2 73 2.4 W 9 20 5 11 1021.6 1021.6 0.0
15/04:00pm 13.9 11.6 8.9 72 2.5 WSW 11 22 6 12 1021.5 1021.5 0.0
15/03:30pm 13.8 11.4 8.6 71 2.6 WSW 11 33 6 18 1021.4 1021.4 0.0
15/03:00pm 13.8 11.0 8.4 70 2.7 WSW 13 24 7 13 1021.3 1021.3 0.0
15/02:30pm 13.5 11.4 8.4 71 2.5 WSW 9 19 5 10 1021.2 1021.2 0.0
15/02:00pm 13.3 10.4 8.0 70 2.6 W 13 28 7 15 1021.5 1021.5 0.0
15/01:30pm 13.1 10.1 7.5 69 2.7 SW 13 22 7 12 1021.7 1021.7 0.0
15/01:00pm 13.3 10.6 7.3 67 2.9 WSW 11 28 6 15 1022.0 1022.0 0.0
15/12:30pm 13.2 10.6 7.6 69 2.7 SW 11 24 6 13 1022.1 1022.1 0.0
15/12:00pm 13.1 10.1 7.5 69 2.7 SW 13 24 7 13 1022.5 1022.5 0.0
15/11:30am 12.8 9.7 7.3 69 2.7 WSW 13 24 7 13 1022.5 1022.5 0.0
15/11:00am 12.1 9.7 7.2 72 2.3 SW 9 17 5 9 1022.8 1022.8 0.0
15/10:30am 11.0 8.7 7.5 79 1.7 W 9 20 5 11 1023.0 1023.0 0.0
15/10:00am 10.2 8.3 7.4 83 1.3 SW 7 11 4 6 1022.9 1022.9 0.0
15/09:30am 10.5 8.3 7.7 83 1.3 WSW 9 17 5 9 1022.7 1022.7 0.0
15/09:00am 10.0 7.7 7.3 83 1.3 W 9 20 5 11 1022.3 1022.3 4.4
15/08:30am 9.5 7.8 7.4 87 1.0 W 6 11 3 6 1022.0 1022.0 4.2
15/08:00am 9.5 7.1 7.1 85 1.1 W 9 15 5 8 1021.9 1021.9 4.2
15/07:30am 9.4 7.6 7.3 87 1.0 WSW 6 15 3 8 1021.3 1021.3 4.2
15/07:00am 9.2 7.2 7.2 87 0.9 WSW 7 13 4 7 1020.7 1020.7 4.2
15/06:30am 9.4 7.0 7.2 86 1.0 WSW 9 19 5 10 1020.2 1020.2 4.2
15/06:00am 9.3 7.0 7.3 87 0.9 SW 9 22 5 12 1019.8 1019.8 4.2
15/05:30am 9.2 7.3 7.5 89 0.8 W 7 17 4 9 1019.4 1019.4 4.0
15/05:00am 9.0 6.7 7.5 90 0.7 W 9 20 5 11 1018.8 1018.8 4.0
15/04:30am 9.0 6.7 7.5 90 0.7 WSW 9 26 5 14 1018.5 1018.5 4.0
15/04:00am 9.1 6.4 7.4 89 0.8 W 11 20 6 11 1018.4 1018.4 3.8
15/03:54am 9.2 6.9 7.5 89 0.8 W 9 20 5 11 1018.4 1018.4 3.8
15/03:42am 9.3 6.2 7.4 88 0.9 WSW 13 26 7 14 1018.5 1018.5 3.8
15/03:30am 9.5 7.2 7.4 87 1.0 WSW 9 15 5 8 1018.2 1018.2 3.2
15/03:00am 9.5 6.8 7.3 86 1.0 WSW 11 20 6 11 1018.0 1018.0 3.2
15/02:30am 9.7 6.6 7.3 85 1.1 WSW 13 22 7 12 1017.6 1017.6 3.2
15/02:00am 10.1 7.0 7.2 82 1.4 WSW 13 26 7 14 1017.6 1017.6 2.8
15/01:30am 10.1 7.4 7.3 83 1.3 SW 11 22 6 12 1017.1 1017.1 2.8
15/01:00am 10.5 7.3 7.0 79 1.7 WSW 13 24 7 13 1016.5 1016.5 2.6
15/12:30am 10.5 7.9 7.6 82 1.4 WSW 11 20 6 11 1016.3 1016.3 2.6
15/12:00am 10.3 7.3 7.7 84 1.2 W 13 28 7 15 1016.1 1016.1 2.6
 
Date/Time
EST
Temp
°C
App
Temp
°C
Dew
Point
°C
Rel
Hum
%
Delta-T
°C
Wind Press
QNH
hPa
Press
MSL
hPa
Rain since
9am
mm
Dir  Spd
km/h
Gust
km/h
Spd
kts
Gust
kts
14/11:30pm 9.9 6.9 7.8 87 1.0 W 13 28 7 15 1015.9 1015.9 2.6
14/11:00pm 10.1 7.4 7.5 84 1.2 W 11 20 6 11 1015.9 1015.9 2.6
14/10:30pm 10.3 6.1 7.5 83 1.3 W 19 37 10 20 1016.0 1016.0 2.4
14/10:00pm 10.7 6.4 7.0 78 1.8 W 19 35 10 19 1015.8 1015.8 2.2
14/09:30pm 11.4 6.9 6.3 71 2.4 W 19 30 10 16 1015.8 1015.8 2.0
14/09:00pm 11.3 6.7 6.4 72 2.3 W 20 39 11 21 1015.7 1015.7 2.0
14/08:30pm 11.4 6.9 6.1 70 2.5 W 19 48 10 26 1016.0 1016.0 2.0
14/08:00pm 11.4 6.7 5.3 66 2.8 W 19 39 10 21 1015.8 1015.8 2.0
14/07:30pm 11.2 7.4 5.9 70 2.5 W 15 28 8 15 1015.7 1015.7 2.0
14/07:04pm 10.5 7.0 7.4 81 1.5 W 15 35 8 19 1015.8 1015.8 2.0
14/07:00pm 10.3 6.8 7.4 82 1.4 W 15 35 8 19 1015.8 1015.8 2.0
14/06:49pm 10.3 6.0 7.2 81 1.5 W 19 33 10 18 1015.9 1015.9 2.0
14/06:30pm 11.1 6.7 6.5 73 2.2 W 19 33 10 18 1016.3 1016.3 2.0
14/06:00pm 11.1 7.5 6.6 74 2.1 W 15 35 8 19 1016.2 1016.2 2.0
14/05:30pm 12.1 7.9 5.7 65 3.0 W 17 35 9 19 1016.0 1016.0 2.0
14/05:00pm 11.8 7.9 6.9 72 2.3 W 17 39 9 21 1015.9 1015.9 2.0
14/04:30pm 11.3 8.2 8.9 85 1.2 W 15 41 8 22 1015.8 1015.8 1.8
14/04:11pm 11.3 8.2 9.0 86 1.1 WNW 15 35 8 19 1015.8 1015.8 1.8
14/04:00pm 11.1 8.4 8.8 86 1.1 W 13 26 7 14 1015.7 1015.7 1.8
14/03:43pm 12.0 9.5 8.1 77 1.9 WSW 11 17 6 9 1015.5 1015.5 0.8
14/03:30pm 12.4 9.7 7.3 71 2.5 WSW 11 26 6 14 1015.4 1015.4 0.6
14/03:00pm 12.4 9.8 7.9 74 2.2 WNW 11 22 6 12 1015.6 1015.6 0.6
14/02:59pm 12.3 9.3 7.8 74 2.2 WNW 13 22 7 12 1015.7 1015.7 0.6
14/02:46pm 11.8 9.6 7.9 77 1.9 W 9 15 5 8 1016.1 1016.1 0.4
14/02:36pm 12.0 10.1 7.5 74 2.2 WNW 7 17 4 9 1015.9 1015.9 0.2
14/02:30pm 12.0 9.5 8.1 77 1.9 WNW 11 28 6 15 1016.0 1016.0 0.2
14/02:19pm 11.9 8.0 7.2 73 2.3 WNW 17 37 9 20 1016.4 1016.4 0.0
14/02:00pm 12.9 9.6 6.5 65 3.0 WNW 13 28 7 15 1016.3 1016.3 0.0
14/01:30pm 12.5 8.2 6.8 68 2.7 NW 19 32 10 17 1016.9 1016.9 0.0
14/01:00pm 12.0 8.0 6.5 69 2.6 NW 17 39 9 21 1017.5 1017.5 0.0
14/12:30pm 11.7 7.7 6.6 71 2.4 NW 17 30 9 16 1017.9 1017.9 0.0
14/12:13pm 11.1 7.5 6.8 75 2.0 NW 15 33 8 18 1018.5 1018.5 0.0
14/12:00pm 11.1 8.2 6.5 73 2.2 WNW 11 20 6 11 1018.7 1018.7 0.0
14/11:58am 11.1 8.6 6.6 74 2.1 WNW 9 20 5 11 1018.8 1018.8 0.0
14/11:30am 10.8 7.1 6.2 73 2.1 NNW 15 20 8 11 1018.9 1018.9 0.0
14/11:00am 11.0 6.9 6.0 71 2.3 N 17 28 9 15 1019.2 1019.2 0.0
14/10:30am 10.5 7.2 6.3 75 2.0 NNW 13 19 7 10 1019.9 1019.9 0.0
14/10:00am 10.1 5.4 6.1 76 1.8 NW 20 35 11 19 1020.0 1020.0 0.0
14/09:30am 10.4 6.9 5.6 72 2.2 NW 13 24 7 13 1020.2 1020.2 0.0
14/09:00am 9.8 6.2 5.2 73 2.1 NNW 13 24 7 13 1020.0 1020.0 0.8
14/08:30am 9.0 6.1 4.8 75 1.9 NNW 9 22 5 12 1020.2 1020.2 0.8
14/08:00am 9.8 6.5 4.6 70 2.3 NNW 11 17 6 9 1020.0 1020.0 0.8
14/07:30am 9.5 6.6 4.5 71 2.2 NNW 9 19 5 10 1020.3 1020.3 0.8
14/07:00am 9.2 6.2 4.2 71 2.2 NNW 9 19 5 10 1020.3 1020.3 0.8
14/06:30am 9.0 5.3 4.2 72 2.1 NNW 13 19 7 10 1020.2 1020.2 0.8
14/06:00am 8.8 5.0 4.0 72 2.1 NW 13 26 7 14 1020.2 1020.2 0.8
14/05:30am 8.4 3.8 3.7 72 2.0 NW 17 26 9 14 1020.5 1020.5 0.8
14/05:00am 8.1 4.5 3.2 71 2.1 NNW 11 20 6 11 1020.7 1020.7 0.8
14/04:30am 8.0 3.3 3.1 71 2.1 NW 17 24 9 13 1021.0 1021.0 0.8

Other formats

Comma delimited format used in spreadsheet applications
http://www.bom.gov.au/fwo/IDV60801/IDV60801.95936.axf

JavaScript Object Notation format (JSON) in row-major order
http://www.bom.gov.au/fwo/IDV60801/IDV60801.95936.json

Data quality

Most of these data are generated automatically and are frequently updated. Quality checks on data are not normally performed. It is possible for incorrect values to appear. Refer to information at About Latest Weather Observations and please check the disclaimer before using these data.